sensor_id;sensor_type;location;lat;lon;timestamp;P1;durP1;ratioP1;P2;durP2;ratioP2
7817;SDS011;3954;52.624;9.212;2022-09-01T00:01:54;1.20;;;1.00;;
7817;SDS011;3954;52.624;9.212;2022-09-01T00:04:21;1.20;;;0.90;;
7817;SDS011;3954;52.624;9.212;2022-09-01T00:06:49;1.17;;;1.07;;
7817;SDS011;3954;52.624;9.212;2022-09-01T00:09:19;1.20;;;1.10;;
7817;SDS011;3954;52.624;9.212;2022-09-01T00:11:46;1.17;;;1.07;;
7817;SDS011;3954;52.624;9.212;2022-09-01T00:14:13;1.83;;;0.87;;
7817;SDS011;3954;52.624;9.212;2022-09-01T00:16:40;1.47;;;1.13;;
7817;SDS011;3954;52.624;9.212;2022-09-01T00:19:06;1.20;;;1.10;;
7817;SDS011;3954;52.624;9.212;2022-09-01T00:21:34;1.27;;;1.00;;
7817;SDS011;3954;52.624;9.212;2022-09-01T00:24:01;1.30;;;1.03;;
7817;SDS011;3954;52.624;9.212;2022-09-01T00:26:27;1.00;;;0.90;;
7817;SDS011;3954;52.624;9.212;2022-09-01T00:28:53;2.70;;;1.23;;
7817;SDS011;3954;52.624;9.212;2022-09-01T00:31:19;1.03;;;0.93;;
7817;SDS011;3954;52.624;9.212;2022-09-01T00:33:47;1.20;;;1.10;;
7817;SDS011;3954;52.624;9.212;2022-09-01T00:36:13;1.50;;;1.10;;
7817;SDS011;3954;52.624;9.212;2022-09-01T00:38:39;1.07;;;0.97;;
7817;SDS011;3954;52.624;9.212;2022-09-01T00:41:05;1.80;;;1.03;;
7817;SDS011;3954;52.624;9.212;2022-09-01T00:43:36;1.10;;;1.00;;
7817;SDS011;3954;52.624;9.212;2022-09-01T00:46:03;1.20;;;1.10;;
7817;SDS011;3954;52.624;9.212;2022-09-01T00:48:29;2.10;;;1.07;;
7817;SDS011;3954;52.624;9.212;2022-09-01T00:50:57;1.13;;;1.03;;
7817;SDS011;3954;52.624;9.212;2022-09-01T00:53:24;1.77;;;1.10;;
7817;SDS011;3954;52.624;9.212;2022-09-01T00:55:50;2.97;;;1.20;;
7817;SDS011;3954;52.624;9.212;2022-09-01T00:58:16;2.43;;;1.47;;
7817;SDS011;3954;52.624;9.212;2022-09-01T01:00:42;0.90;;;0.90;;
7817;SDS011;3954;52.624;9.212;2022-09-01T01:03:11;1.00;;;1.00;;
7817;SDS011;3954;52.624;9.212;2022-09-01T01:05:39;1.27;;;1.10;;
7817;SDS011;3954;52.624;9.212;2022-09-01T01:08:07;1.23;;;1.10;;
7817;SDS011;3954;52.624;9.212;2022-09-01T01:10:36;1.20;;;1.10;;
7817;SDS011;3954;52.624;9.212;2022-09-01T01:13:05;2.03;;;1.30;;
7817;SDS011;3954;52.624;9.212;2022-09-01T01:15:32;4.23;;;1.20;;
7817;SDS011;3954;52.624;9.212;2022-09-01T01:17:59;1.10;;;1.00;;
7817;SDS011;3954;52.624;9.212;2022-09-01T01:20:25;1.30;;;1.20;;
7817;SDS011;3954;52.624;9.212;2022-09-01T01:23:14;1.20;;;1.20;;
7817;SDS011;3954;52.624;9.212;2022-09-01T01:25:44;1.23;;;1.13;;
7817;SDS011;3954;52.624;9.212;2022-09-01T01:28:12;1.80;;;1.10;;
7817;SDS011;3954;52.624;9.212;2022-09-01T01:30:40;1.07;;;1.07;;
7817;SDS011;3954;52.624;9.212;2022-09-01T01:33:07;1.20;;;1.10;;
7817;SDS011;3954;52.624;9.212;2022-09-01T01:35:33;1.60;;;1.07;;
7817;SDS011;3954;52.624;9.212;2022-09-01T01:38:00;1.10;;;1.10;;
7817;SDS011;3954;52.624;9.212;2022-09-01T01:40:27;1.43;;;0.90;;
7817;SDS011;3954;52.624;9.212;2022-09-01T01:42:54;1.37;;;1.00;;
7817;SDS011;3954;52.624;9.212;2022-09-01T01:45:22;1.13;;;1.03;;
7817;SDS011;3954;52.624;9.212;2022-09-01T01:47:49;1.20;;;1.10;;
7817;SDS011;3954;52.624;9.212;2022-09-01T01:50:17;1.40;;;1.20;;
7817;SDS011;3954;52.624;9.212;2022-09-01T01:52:43;2.23;;;1.10;;
7817;SDS011;3954;52.624;9.212;2022-09-01T01:55:09;1.10;;;1.00;;
7817;SDS011;3954;52.624;9.212;2022-09-01T01:57:37;0.93;;;0.87;;
7817;SDS011;3954;52.624;9.212;2022-09-01T02:00:05;1.20;;;1.10;;
7817;SDS011;3954;52.624;9.212;2022-09-01T02:02:31;1.23;;;1.10;;
7817;SDS011;3954;52.624;9.212;2022-09-01T02:04:57;1.83;;;1.37;;
7817;SDS011;3954;52.624;9.212;2022-09-01T02:07:24;1.10;;;1.00;;
7817;SDS011;3954;52.624;9.212;2022-09-01T02:09:51;1.70;;;1.30;;
7817;SDS011;3954;52.624;9.212;2022-09-01T02:12:17;1.60;;;1.10;;
7817;SDS011;3954;52.624;9.212;2022-09-01T02:14:43;1.13;;;1.00;;
7817;SDS011;3954;52.624;9.212;2022-09-01T02:17:11;1.83;;;1.03;;
7817;SDS011;3954;52.624;9.212;2022-09-01T02:19:37;1.03;;;0.93;;
7817;SDS011;3954;52.624;9.212;2022-09-01T02:22:07;1.43;;;1.20;;
7817;SDS011;3954;52.624;9.212;2022-09-01T02:24:34;1.50;;;1.40;;
7817;SDS011;3954;52.624;9.212;2022-09-01T02:27:00;1.27;;;1.17;;
7817;SDS011;3954;52.624;9.212;2022-09-01T02:29:27;1.03;;;1.00;;
7817;SDS011;3954;52.624;9.212;2022-09-01T02:31:54;1.00;;;0.90;;
7817;SDS011;3954;52.624;9.212;2022-09-01T02:34:22;1.40;;;1.30;;
7817;SDS011;3954;52.624;9.212;2022-09-01T02:36:50;1.63;;;1.10;;
7817;SDS011;3954;52.624;9.212;2022-09-01T02:39:17;1.17;;;1.03;;
7817;SDS011;3954;52.624;9.212;2022-09-01T02:41:44;1.20;;;1.10;;
7817;SDS011;3954;52.624;9.212;2022-09-01T02:44:10;2.97;;;1.30;;
7817;SDS011;3954;52.624;9.212;2022-09-01T02:46:36;1.67;;;1.20;;
7817;SDS011;3954;52.624;9.212;2022-09-01T02:49:05;1.20;;;1.10;;
7817;SDS011;3954;52.624;9.212;2022-09-01T02:51:34;1.43;;;1.33;;
7817;SDS011;3954;52.624;9.212;2022-09-01T02:54:01;1.27;;;1.20;;
7817;SDS011;3954;52.624;9.212;2022-09-01T02:56:27;1.30;;;1.20;;
7817;SDS011;3954;52.624;9.212;2022-09-01T02:58:54;0.90;;;0.90;;
7817;SDS011;3954;52.624;9.212;2022-09-01T03:01:21;1.10;;;1.07;;
7817;SDS011;3954;52.624;9.212;2022-09-01T03:03:48;1.60;;;1.03;;
7817;SDS011;3954;52.624;9.212;2022-09-01T03:06:14;1.20;;;1.03;;
7817;SDS011;3954;52.624;9.212;2022-09-01T03:08:45;1.50;;;1.33;;
7817;SDS011;3954;52.624;9.212;2022-09-01T03:11:11;1.30;;;1.20;;
7817;SDS011;3954;52.624;9.212;2022-09-01T03:13:37;1.50;;;1.40;;
7817;SDS011;3954;52.624;9.212;2022-09-01T03:16:03;1.70;;;1.30;;
7817;SDS011;3954;52.624;9.212;2022-09-01T03:18:30;2.27;;;1.00;;
7817;SDS011;3954;52.624;9.212;2022-09-01T03:20:55;1.90;;;1.20;;
7817;SDS011;3954;52.624;9.212;2022-09-01T03:23:22;1.27;;;1.10;;
7817;SDS011;3954;52.624;9.212;2022-09-01T03:25:53;1.33;;;1.17;;
7817;SDS011;3954;52.624;9.212;2022-09-01T03:28:19;1.00;;;1.00;;
7817;SDS011;3954;52.624;9.212;2022-09-01T03:30:47;0.80;;;0.80;;
7817;SDS011;3954;52.624;9.212;2022-09-01T03:33:13;1.30;;;1.20;;
7817;SDS011;3954;52.624;9.212;2022-09-01T03:35:41;1.40;;;1.30;;
7817;SDS011;3954;52.624;9.212;2022-09-01T03:38:07;2.50;;;1.20;;
7817;SDS011;3954;52.624;9.212;2022-09-01T03:40:34;1.30;;;1.20;;
7817;SDS011;3954;52.624;9.212;2022-09-01T03:43:03;1.03;;;1.00;;
7817;SDS011;3954;52.624;9.212;2022-09-01T03:45:30;1.80;;;1.10;;
7817;SDS011;3954;52.624;9.212;2022-09-01T03:48:02;1.70;;;1.20;;
7817;SDS011;3954;52.624;9.212;2022-09-01T03:50:33;2.40;;;1.30;;
7817;SDS011;3954;52.624;9.212;2022-09-01T03:53:05;1.53;;;1.10;;
7817;SDS011;3954;52.624;9.212;2022-09-01T03:55:32;1.80;;;1.40;;
7817;SDS011;3954;52.624;9.212;2022-09-01T03:58:00;3.33;;;1.40;;
7817;SDS011;3954;52.624;9.212;2022-09-01T04:00:32;1.43;;;1.33;;
7817;SDS011;3954;52.624;9.212;2022-09-01T04:03:00;1.40;;;1.30;;
7817;SDS011;3954;52.624;9.212;2022-09-01T04:05:27;1.40;;;1.30;;
7817;SDS011;3954;52.624;9.212;2022-09-01T04:07:54;1.10;;;1.00;;
7817;SDS011;3954;52.624;9.212;2022-09-01T04:10:20;1.50;;;1.33;;
7817;SDS011;3954;52.624;9.212;2022-09-01T04:12:47;2.07;;;1.30;;
7817;SDS011;3954;52.624;9.212;2022-09-01T04:15:13;2.03;;;1.10;;
7817;SDS011;3954;52.624;9.212;2022-09-01T04:17:42;1.33;;;1.23;;
7817;SDS011;3954;52.624;9.212;2022-09-01T04:20:27;1.40;;;1.30;;
7817;SDS011;3954;52.624;9.212;2022-09-01T04:22:53;1.30;;;1.20;;
7817;SDS011;3954;52.624;9.212;2022-09-01T04:25:19;1.53;;;1.27;;
7817;SDS011;3954;52.624;9.212;2022-09-01T04:27:49;1.33;;;1.10;;
7817;SDS011;3954;52.624;9.212;2022-09-01T04:30:19;1.33;;;1.20;;
7817;SDS011;3954;52.624;9.212;2022-09-01T04:32:50;1.60;;;1.30;;
7817;SDS011;3954;52.624;9.212;2022-09-01T04:35:19;2.10;;;1.20;;
7817;SDS011;3954;52.624;9.212;2022-09-01T04:37:52;1.30;;;1.20;;
7817;SDS011;3954;52.624;9.212;2022-09-01T04:40:18;2.97;;;1.30;;
7817;SDS011;3954;52.624;9.212;2022-09-01T04:42:47;1.30;;;1.20;;
7817;SDS011;3954;52.624;9.212;2022-09-01T04:45:13;4.03;;;1.60;;
7817;SDS011;3954;52.624;9.212;2022-09-01T04:47:40;1.50;;;1.33;;
7817;SDS011;3954;52.624;9.212;2022-09-01T04:50:10;2.23;;;1.20;;
7817;SDS011;3954;52.624;9.212;2022-09-01T04:52:38;1.23;;;1.13;;
7817;SDS011;3954;52.624;9.212;2022-09-01T04:55:05;2.60;;;1.33;;
7817;SDS011;3954;52.624;9.212;2022-09-01T04:57:32;1.23;;;1.13;;
7817;SDS011;3954;52.624;9.212;2022-09-01T04:59:59;2.00;;;1.20;;
7817;SDS011;3954;52.624;9.212;2022-09-01T05:02:25;1.03;;;1.03;;
7817;SDS011;3954;52.624;9.212;2022-09-01T05:04:52;1.70;;;1.27;;
7817;SDS011;3954;52.624;9.212;2022-09-01T05:07:22;1.90;;;1.40;;
7817;SDS011;3954;52.624;9.212;2022-09-01T05:09:48;2.60;;;1.10;;
7817;SDS011;3954;52.624;9.212;2022-09-01T05:12:13;1.97;;;1.30;;
7817;SDS011;3954;52.624;9.212;2022-09-01T05:14:41;1.63;;;1.53;;
7817;SDS011;3954;52.624;9.212;2022-09-01T05:17:07;1.73;;;1.60;;
7817;SDS011;3954;52.624;9.212;2022-09-01T05:19:35;1.60;;;1.50;;
7817;SDS011;3954;52.624;9.212;2022-09-01T05:22:01;1.67;;;1.23;;
7817;SDS011;3954;52.624;9.212;2022-09-01T05:24:30;2.60;;;1.90;;
7817;SDS011;3954;52.624;9.212;2022-09-01T05:26:58;1.60;;;1.50;;
7817;SDS011;3954;52.624;9.212;2022-09-01T05:29:25;2.17;;;1.70;;
7817;SDS011;3954;52.624;9.212;2022-09-01T05:31:52;1.67;;;1.40;;
7817;SDS011;3954;52.624;9.212;2022-09-01T05:34:19;1.67;;;1.40;;
7817;SDS011;3954;52.624;9.212;2022-09-01T05:36:51;1.50;;;1.40;;
7817;SDS011;3954;52.624;9.212;2022-09-01T05:39:17;2.03;;;1.50;;
7817;SDS011;3954;52.624;9.212;2022-09-01T05:41:44;2.20;;;1.43;;
7817;SDS011;3954;52.624;9.212;2022-09-01T05:44:12;1.70;;;1.50;;
7817;SDS011;3954;52.624;9.212;2022-09-01T05:46:39;2.40;;;1.53;;
7817;SDS011;3954;52.624;9.212;2022-09-01T05:49:08;1.50;;;1.40;;
7817;SDS011;3954;52.624;9.212;2022-09-01T05:51:40;4.10;;;1.60;;
7817;SDS011;3954;52.624;9.212;2022-09-01T05:54:08;1.87;;;1.60;;
7817;SDS011;3954;52.624;9.212;2022-09-01T05:56:35;1.50;;;1.40;;
7817;SDS011;3954;52.624;9.212;2022-09-01T05:59:06;2.57;;;1.33;;
7817;SDS011;3954;52.624;9.212;2022-09-01T06:01:33;2.00;;;1.50;;
7817;SDS011;3954;52.624;9.212;2022-09-01T06:04:04;2.80;;;1.33;;
7817;SDS011;3954;52.624;9.212;2022-09-01T06:06:34;1.73;;;1.50;;
7817;SDS011;3954;52.624;9.212;2022-09-01T06:09:02;1.43;;;1.20;;
7817;SDS011;3954;52.624;9.212;2022-09-01T06:11:28;4.03;;;1.83;;
7817;SDS011;3954;52.624;9.212;2022-09-01T06:13:57;2.73;;;1.50;;
7817;SDS011;3954;52.624;9.212;2022-09-01T06:16:24;1.83;;;1.27;;
7817;SDS011;3954;52.624;9.212;2022-09-01T06:18:52;1.67;;;1.30;;
7817;SDS011;3954;52.624;9.212;2022-09-01T06:21:19;3.80;;;1.60;;
7817;SDS011;3954;52.624;9.212;2022-09-01T06:23:46;2.47;;;1.20;;
7817;SDS011;3954;52.624;9.212;2022-09-01T06:26:15;1.27;;;1.17;;
7817;SDS011;3954;52.624;9.212;2022-09-01T06:28:41;1.13;;;1.03;;
7817;SDS011;3954;52.624;9.212;2022-09-01T06:31:07;2.03;;;1.50;;
7817;SDS011;3954;52.624;9.212;2022-09-01T06:33:35;1.60;;;1.50;;
7817;SDS011;3954;52.624;9.212;2022-09-01T06:36:01;1.90;;;1.37;;
7817;SDS011;3954;52.624;9.212;2022-09-01T06:38:33;2.53;;;1.20;;
7817;SDS011;3954;52.624;9.212;2022-09-01T06:41:00;2.30;;;1.30;;
7817;SDS011;3954;52.624;9.212;2022-09-01T06:43:28;1.40;;;1.30;;
7817;SDS011;3954;52.624;9.212;2022-09-01T06:45:55;2.07;;;1.20;;
7817;SDS011;3954;52.624;9.212;2022-09-01T06:48:21;2.30;;;1.33;;
7817;SDS011;3954;52.624;9.212;2022-09-01T06:50:49;1.77;;;1.40;;
7817;SDS011;3954;52.624;9.212;2022-09-01T06:53:15;2.77;;;1.40;;
7817;SDS011;3954;52.624;9.212;2022-09-01T06:55:43;2.47;;;1.20;;
7817;SDS011;3954;52.624;9.212;2022-09-01T06:58:10;2.13;;;1.23;;
7817;SDS011;3954;52.624;9.212;2022-09-01T07:00:39;1.47;;;1.10;;
7817;SDS011;3954;52.624;9.212;2022-09-01T07:03:09;2.03;;;1.30;;
7817;SDS011;3954;52.624;9.212;2022-09-01T07:05:37;1.43;;;1.30;;
7817;SDS011;3954;52.624;9.212;2022-09-01T07:08:05;1.77;;;1.10;;
7817;SDS011;3954;52.624;9.212;2022-09-01T07:10:37;3.73;;;1.30;;
7817;SDS011;3954;52.624;9.212;2022-09-01T07:13:06;2.17;;;1.30;;
7817;SDS011;3954;52.624;9.212;2022-09-01T07:15:36;3.70;;;1.30;;
7817;SDS011;3954;52.624;9.212;2022-09-01T07:18:02;2.30;;;1.47;;
7817;SDS011;3954;52.624;9.212;2022-09-01T07:20:28;2.47;;;1.20;;
7817;SDS011;3954;52.624;9.212;2022-09-01T07:22:56;1.63;;;1.20;;
7817;SDS011;3954;52.624;9.212;2022-09-01T07:25:23;5.47;;;1.50;;
7817;SDS011;3954;52.624;9.212;2022-09-01T07:27:49;3.03;;;1.30;;
7817;SDS011;3954;52.624;9.212;2022-09-01T07:30:15;2.47;;;1.20;;
7817;SDS011;3954;52.624;9.212;2022-09-01T07:32:42;3.70;;;1.47;;
7817;SDS011;3954;52.624;9.212;2022-09-01T07:35:09;1.00;;;0.87;;
7817;SDS011;3954;52.624;9.212;2022-09-01T07:37:35;2.20;;;1.20;;
7817;SDS011;3954;52.624;9.212;2022-09-01T07:40:02;2.40;;;1.10;;
7817;SDS011;3954;52.624;9.212;2022-09-01T07:42:31;1.97;;;1.20;;
7817;SDS011;3954;52.624;9.212;2022-09-01T07:44:57;2.70;;;1.20;;
7817;SDS011;3954;52.624;9.212;2022-09-01T07:47:24;1.43;;;1.13;;
7817;SDS011;3954;52.624;9.212;2022-09-01T07:49:53;2.03;;;1.47;;
7817;SDS011;3954;52.624;9.212;2022-09-01T07:52:19;2.17;;;1.10;;
7817;SDS011;3954;52.624;9.212;2022-09-01T07:54:45;2.00;;;1.20;;
7817;SDS011;3954;52.624;9.212;2022-09-01T07:57:11;6.53;;;1.40;;
7817;SDS011;3954;52.624;9.212;2022-09-01T07:59:40;1.53;;;1.20;;
7817;SDS011;3954;52.624;9.212;2022-09-01T08:02:07;1.80;;;1.43;;
7817;SDS011;3954;52.624;9.212;2022-09-01T08:04:33;2.97;;;1.20;;
7817;SDS011;3954;52.624;9.212;2022-09-01T08:06:59;1.40;;;1.00;;
7817;SDS011;3954;52.624;9.212;2022-09-01T08:09:25;4.17;;;1.20;;
7817;SDS011;3954;52.624;9.212;2022-09-01T08:11:51;3.07;;;1.40;;
7817;SDS011;3954;52.624;9.212;2022-09-01T08:14:18;6.73;;;1.57;;
7817;SDS011;3954;52.624;9.212;2022-09-01T08:16:45;5.03;;;1.70;;
7817;SDS011;3954;52.624;9.212;2022-09-01T08:19:11;1.10;;;0.97;;
7817;SDS011;3954;52.624;9.212;2022-09-01T08:21:37;2.07;;;1.00;;
7817;SDS011;3954;52.624;9.212;2022-09-01T08:24:04;3.00;;;0.93;;
7817;SDS011;3954;52.624;9.212;2022-09-01T08:26:30;2.50;;;1.10;;
7817;SDS011;3954;52.624;9.212;2022-09-01T08:28:56;1.63;;;0.97;;
7817;SDS011;3954;52.624;9.212;2022-09-01T08:31:23;2.57;;;1.07;;
7817;SDS011;3954;52.624;9.212;2022-09-01T08:33:50;1.43;;;0.90;;
7817;SDS011;3954;52.624;9.212;2022-09-01T08:36:16;1.17;;;0.93;;
7817;SDS011;3954;52.624;9.212;2022-09-01T08:38:42;1.37;;;1.07;;
7817;SDS011;3954;52.624;9.212;2022-09-01T08:41:12;2.30;;;1.17;;
7817;SDS011;3954;52.624;9.212;2022-09-01T08:43:43;2.00;;;0.80;;
7817;SDS011;3954;52.624;9.212;2022-09-01T08:46:13;1.33;;;0.90;;
7817;SDS011;3954;52.624;9.212;2022-09-01T08:48:42;1.73;;;1.10;;
7817;SDS011;3954;52.624;9.212;2022-09-01T08:51:11;3.77;;;1.20;;
7817;SDS011;3954;52.624;9.212;2022-09-01T08:53:40;2.50;;;1.00;;
7817;SDS011;3954;52.624;9.212;2022-09-01T08:56:08;2.37;;;0.90;;
7817;SDS011;3954;52.624;9.212;2022-09-01T08:58:35;2.20;;;0.90;;
7817;SDS011;3954;52.624;9.212;2022-09-01T09:01:02;3.10;;;0.73;;
7817;SDS011;3954;52.624;9.212;2022-09-01T09:03:30;2.47;;;1.07;;
7817;SDS011;3954;52.624;9.212;2022-09-01T09:06:03;2.87;;;1.10;;
7817;SDS011;3954;52.624;9.212;2022-09-01T09:08:54;6.00;;;1.10;;
7817;SDS011;3954;52.624;9.212;2022-09-01T09:11:34;2.10;;;0.80;;
7817;SDS011;3954;52.624;9.212;2022-09-01T09:14:04;1.30;;;0.80;;
7817;SDS011;3954;52.624;9.212;2022-09-01T09:16:36;1.23;;;0.80;;
7817;SDS011;3954;52.624;9.212;2022-09-01T09:19:04;2.43;;;0.90;;
7817;SDS011;3954;52.624;9.212;2022-09-01T09:21:34;1.67;;;0.87;;
7817;SDS011;3954;52.624;9.212;2022-09-01T09:24:05;4.17;;;1.00;;
7817;SDS011;3954;52.624;9.212;2022-09-01T09:26:33;2.57;;;0.97;;
7817;SDS011;3954;52.624;9.212;2022-09-01T09:28:59;1.70;;;0.93;;
7817;SDS011;3954;52.624;9.212;2022-09-01T09:31:27;2.47;;;0.93;;
7817;SDS011;3954;52.624;9.212;2022-09-01T09:33:53;1.60;;;0.70;;
7817;SDS011;3954;52.624;9.212;2022-09-01T09:36:20;1.97;;;1.10;;
7817;SDS011;3954;52.624;9.212;2022-09-01T09:38:46;1.53;;;0.80;;
7817;SDS011;3954;52.624;9.212;2022-09-01T09:41:17;1.07;;;0.93;;
7817;SDS011;3954;52.624;9.212;2022-09-01T09:43:44;1.10;;;0.80;;
7817;SDS011;3954;52.624;9.212;2022-09-01T09:46:23;1.20;;;0.77;;
7817;SDS011;3954;52.624;9.212;2022-09-01T09:48:54;1.80;;;0.60;;
7817;SDS011;3954;52.624;9.212;2022-09-01T09:51:31;0.80;;;0.80;;
7817;SDS011;3954;52.624;9.212;2022-09-01T09:54:09;2.20;;;0.80;;
7817;SDS011;3954;52.624;9.212;2022-09-01T09:56:36;2.80;;;0.90;;
7817;SDS011;3954;52.624;9.212;2022-09-01T09:59:02;1.00;;;0.90;;
7817;SDS011;3954;52.624;9.212;2022-09-01T10:01:41;3.30;;;1.00;;
7817;SDS011;3954;52.624;9.212;2022-09-01T10:04:07;2.13;;;0.80;;
7817;SDS011;3954;52.624;9.212;2022-09-01T10:06:34;1.87;;;0.90;;
7817;SDS011;3954;52.624;9.212;2022-09-01T10:09:02;1.20;;;1.00;;
7817;SDS011;3954;52.624;9.212;2022-09-01T10:11:30;0.77;;;0.77;;
7817;SDS011;3954;52.624;9.212;2022-09-01T10:13:59;1.33;;;0.77;;
7817;SDS011;3954;52.624;9.212;2022-09-01T10:16:26;0.80;;;0.80;;
7817;SDS011;3954;52.624;9.212;2022-09-01T10:18:54;0.70;;;0.70;;
7817;SDS011;3954;52.624;9.212;2022-09-01T10:21:25;1.40;;;0.80;;
7817;SDS011;3954;52.624;9.212;2022-09-01T10:23:53;1.43;;;0.90;;
7817;SDS011;3954;52.624;9.212;2022-09-01T10:26:21;0.70;;;0.63;;
7817;SDS011;3954;52.624;9.212;2022-09-01T10:28:50;2.87;;;0.77;;
7817;SDS011;3954;52.624;9.212;2022-09-01T10:31:19;1.07;;;0.90;;
7817;SDS011;3954;52.624;9.212;2022-09-01T10:33:45;1.30;;;0.90;;
7817;SDS011;3954;52.624;9.212;2022-09-01T10:36:11;1.40;;;0.90;;
7817;SDS011;3954;52.624;9.212;2022-09-01T10:38:38;1.13;;;0.80;;
7817;SDS011;3954;52.624;9.212;2022-09-01T10:41:04;0.83;;;0.70;;
7817;SDS011;3954;52.624;9.212;2022-09-01T10:43:37;0.70;;;0.70;;
7817;SDS011;3954;52.624;9.212;2022-09-01T10:48:52;1.80;;;0.80;;
7817;SDS011;3954;52.624;9.212;2022-09-01T10:54:03;0.57;;;0.57;;
7817;SDS011;3954;52.624;9.212;2022-09-01T10:56:35;0.70;;;0.60;;
7817;SDS011;3954;52.624;9.212;2022-09-01T10:59:06;2.90;;;0.60;;
7817;SDS011;3954;52.624;9.212;2022-09-01T11:04:19;1.60;;;0.80;;
7817;SDS011;3954;52.624;9.212;2022-09-01T11:06:56;1.77;;;0.73;;
7817;SDS011;3954;52.624;9.212;2022-09-01T11:09:25;0.63;;;0.60;;
7817;SDS011;3954;52.624;9.212;2022-09-01T11:12:01;1.13;;;0.77;;
7817;SDS011;3954;52.624;9.212;2022-09-01T11:14:31;2.10;;;0.80;;
7817;SDS011;3954;52.624;9.212;2022-09-01T11:19:45;0.50;;;0.50;;
7817;SDS011;3954;52.624;9.212;2022-09-01T11:22:22;0.80;;;0.80;;
7817;SDS011;3954;52.624;9.212;2022-09-01T11:24:50;1.43;;;0.60;;
7817;SDS011;3954;52.624;9.212;2022-09-01T11:30:06;1.97;;;0.80;;
7817;SDS011;3954;52.624;9.212;2022-09-01T11:32:33;2.00;;;0.63;;
7817;SDS011;3954;52.624;9.212;2022-09-01T11:35:01;0.50;;;0.50;;
7817;SDS011;3954;52.624;9.212;2022-09-01T11:37:29;7.60;;;1.07;;
7817;SDS011;3954;52.624;9.212;2022-09-01T11:39:57;0.93;;;0.90;;
7817;SDS011;3954;52.624;9.212;2022-09-01T11:42:26;0.63;;;0.57;;
7817;SDS011;3954;52.624;9.212;2022-09-01T11:44:54;2.40;;;0.63;;
7817;SDS011;3954;52.624;9.212;2022-09-01T11:47:22;3.73;;;0.60;;
7817;SDS011;3954;52.624;9.212;2022-09-01T11:49:51;1.00;;;0.70;;
7817;SDS011;3954;52.624;9.212;2022-09-01T11:52:20;1.90;;;0.80;;
7817;SDS011;3954;52.624;9.212;2022-09-01T11:54:47;0.50;;;0.50;;
7817;SDS011;3954;52.624;9.212;2022-09-01T11:57:16;1.07;;;0.60;;
7817;SDS011;3954;52.624;9.212;2022-09-01T11:59:42;1.10;;;0.80;;
7817;SDS011;3954;52.624;9.212;2022-09-01T12:02:09;1.97;;;0.43;;
7817;SDS011;3954;52.624;9.212;2022-09-01T12:04:41;0.73;;;0.67;;
7817;SDS011;3954;52.624;9.212;2022-09-01T12:07:10;0.87;;;0.77;;
7817;SDS011;3954;52.624;9.212;2022-09-01T12:09:40;1.03;;;0.70;;
7817;SDS011;3954;52.624;9.212;2022-09-01T12:12:07;2.90;;;0.90;;
7817;SDS011;3954;52.624;9.212;2022-09-01T12:14:54;1.50;;;0.70;;
7817;SDS011;3954;52.624;9.212;2022-09-01T12:17:20;0.80;;;0.70;;
7817;SDS011;3954;52.624;9.212;2022-09-01T12:19:46;1.23;;;0.70;;
7817;SDS011;3954;52.624;9.212;2022-09-01T12:22:13;4.60;;;0.87;;
7817;SDS011;3954;52.624;9.212;2022-09-01T12:24:44;0.53;;;0.53;;
7817;SDS011;3954;52.624;9.212;2022-09-01T12:27:11;1.47;;;0.70;;
7817;SDS011;3954;52.624;9.212;2022-09-01T12:29:37;0.73;;;0.70;;
7817;SDS011;3954;52.624;9.212;2022-09-01T12:32:03;2.97;;;0.70;;
7817;SDS011;3954;52.624;9.212;2022-09-01T12:34:37;2.03;;;0.70;;
7817;SDS011;3954;52.624;9.212;2022-09-01T12:37:04;0.67;;;0.63;;
7817;SDS011;3954;52.624;9.212;2022-09-01T12:39:34;1.03;;;0.63;;
7817;SDS011;3954;52.624;9.212;2022-09-01T12:42:03;2.67;;;0.87;;
7817;SDS011;3954;52.624;9.212;2022-09-01T12:44:31;1.07;;;0.83;;
7817;SDS011;3954;52.624;9.212;2022-09-01T12:46:59;1.60;;;0.70;;
7817;SDS011;3954;52.624;9.212;2022-09-01T12:49:26;0.70;;;0.50;;
7817;SDS011;3954;52.624;9.212;2022-09-01T12:52:13;1.20;;;0.87;;
7817;SDS011;3954;52.624;9.212;2022-09-01T12:54:40;1.20;;;0.90;;
7817;SDS011;3954;52.624;9.212;2022-09-01T12:57:08;1.03;;;0.73;;
7817;SDS011;3954;52.624;9.212;2022-09-01T12:59:34;2.50;;;0.63;;
7817;SDS011;3954;52.624;9.212;2022-09-01T13:04:45;1.30;;;0.67;;
7817;SDS011;3954;52.624;9.212;2022-09-01T13:07:11;0.50;;;0.50;;
7817;SDS011;3954;52.624;9.212;2022-09-01T13:09:37;1.13;;;0.73;;
7817;SDS011;3954;52.624;9.212;2022-09-01T13:12:11;1.47;;;0.80;;
7817;SDS011;3954;52.624;9.212;2022-09-01T13:14:41;0.97;;;0.80;;
7817;SDS011;3954;52.624;9.212;2022-09-01T13:17:07;1.53;;;0.90;;
7817;SDS011;3954;52.624;9.212;2022-09-01T13:19:33;0.83;;;0.80;;
7817;SDS011;3954;52.624;9.212;2022-09-01T13:21:59;1.10;;;1.00;;
7817;SDS011;3954;52.624;9.212;2022-09-01T13:24:25;1.77;;;0.90;;
7817;SDS011;3954;52.624;9.212;2022-09-01T13:26:51;0.50;;;0.50;;
7817;SDS011;3954;52.624;9.212;2022-09-01T13:29:22;2.60;;;0.80;;
7817;SDS011;3954;52.624;9.212;2022-09-01T13:31:48;2.77;;;0.90;;
7817;SDS011;3954;52.624;9.212;2022-09-01T13:34:14;0.83;;;0.83;;
7817;SDS011;3954;52.624;9.212;2022-09-01T13:36:40;2.30;;;0.83;;
7817;SDS011;3954;52.624;9.212;2022-09-01T13:39:06;0.67;;;0.67;;
7817;SDS011;3954;52.624;9.212;2022-09-01T13:41:32;2.77;;;0.90;;
7817;SDS011;3954;52.624;9.212;2022-09-01T13:43:58;1.53;;;0.87;;
7817;SDS011;3954;52.624;9.212;2022-09-01T13:46:26;2.67;;;1.10;;
7817;SDS011;3954;52.624;9.212;2022-09-01T13:48:52;3.63;;;0.90;;
7817;SDS011;3954;52.624;9.212;2022-09-01T13:51:23;4.53;;;1.00;;
7817;SDS011;3954;52.624;9.212;2022-09-01T13:53:50;1.00;;;1.00;;
7817;SDS011;3954;52.624;9.212;2022-09-01T13:56:16;1.13;;;0.90;;
7817;SDS011;3954;52.624;9.212;2022-09-01T13:58:42;1.20;;;1.10;;
7817;SDS011;3954;52.624;9.212;2022-09-01T14:01:08;1.07;;;0.97;;
7817;SDS011;3954;52.624;9.212;2022-09-01T14:03:35;1.53;;;0.83;;
7817;SDS011;3954;52.624;9.212;2022-09-01T14:06:01;0.60;;;0.60;;
7817;SDS011;3954;52.624;9.212;2022-09-01T14:08:27;2.07;;;0.80;;
7817;SDS011;3954;52.624;9.212;2022-09-01T14:10:55;2.20;;;0.80;;
7817;SDS011;3954;52.624;9.212;2022-09-01T14:13:22;2.33;;;0.70;;
7817;SDS011;3954;52.624;9.212;2022-09-01T14:15:49;0.93;;;0.80;;
7817;SDS011;3954;52.624;9.212;2022-09-01T14:18:16;1.00;;;0.73;;
7817;SDS011;3954;52.624;9.212;2022-09-01T14:20:45;3.10;;;0.87;;
7817;SDS011;3954;52.624;9.212;2022-09-01T14:23:12;0.97;;;0.80;;
7817;SDS011;3954;52.624;9.212;2022-09-01T14:25:40;0.80;;;0.80;;
7817;SDS011;3954;52.624;9.212;2022-09-01T14:28:06;1.20;;;0.67;;
7817;SDS011;3954;52.624;9.212;2022-09-01T14:30:32;3.10;;;1.07;;
7817;SDS011;3954;52.624;9.212;2022-09-01T14:32:58;1.17;;;0.50;;
7817;SDS011;3954;52.624;9.212;2022-09-01T14:35:25;2.67;;;1.10;;
7817;SDS011;3954;52.624;9.212;2022-09-01T14:37:52;3.10;;;0.80;;
7817;SDS011;3954;52.624;9.212;2022-09-01T14:40:19;1.10;;;0.80;;
7817;SDS011;3954;52.624;9.212;2022-09-01T14:42:46;1.33;;;1.13;;
7817;SDS011;3954;52.624;9.212;2022-09-01T14:45:13;1.70;;;0.80;;
7817;SDS011;3954;52.624;9.212;2022-09-01T14:47:40;1.73;;;0.80;;
7817;SDS011;3954;52.624;9.212;2022-09-01T14:50:08;1.50;;;0.93;;
7817;SDS011;3954;52.624;9.212;2022-09-01T14:52:34;0.80;;;0.53;;
7817;SDS011;3954;52.624;9.212;2022-09-01T14:55:02;1.17;;;0.97;;
7817;SDS011;3954;52.624;9.212;2022-09-01T14:57:28;0.63;;;0.60;;
7817;SDS011;3954;52.624;9.212;2022-09-01T14:59:56;0.50;;;0.50;;
7817;SDS011;3954;52.624;9.212;2022-09-01T15:02:22;1.90;;;0.70;;
7817;SDS011;3954;52.624;9.212;2022-09-01T15:04:49;2.53;;;0.93;;
7817;SDS011;3954;52.624;9.212;2022-09-01T15:07:15;0.90;;;0.70;;
7817;SDS011;3954;52.624;9.212;2022-09-01T15:09:41;0.60;;;0.60;;
7817;SDS011;3954;52.624;9.212;2022-09-01T15:12:08;1.50;;;0.80;;
7817;SDS011;3954;52.624;9.212;2022-09-01T15:14:34;1.03;;;0.60;;
7817;SDS011;3954;52.624;9.212;2022-09-01T15:17:00;1.57;;;0.90;;
7817;SDS011;3954;52.624;9.212;2022-09-01T15:19:26;1.43;;;0.63;;
7817;SDS011;3954;52.624;9.212;2022-09-01T15:21:52;1.33;;;0.70;;
7817;SDS011;3954;52.624;9.212;2022-09-01T15:24:18;0.83;;;0.70;;
7817;SDS011;3954;52.624;9.212;2022-09-01T15:26:45;0.77;;;0.77;;
7817;SDS011;3954;52.624;9.212;2022-09-01T15:29:12;0.93;;;0.70;;
7817;SDS011;3954;52.624;9.212;2022-09-01T15:31:39;1.67;;;0.67;;
7817;SDS011;3954;52.624;9.212;2022-09-01T15:34:05;0.80;;;0.80;;
7817;SDS011;3954;52.624;9.212;2022-09-01T15:36:33;1.93;;;0.80;;